Time;durP1;ratioP1;P1;durP2;ratioP2;P2;SDS_P1;SDS_P2;PMS_P1;PMS_P2;Temp;Humidity;BMP_temperature;BMP_pressure;BME280_temperature;BME280_humidity;BME280_pressure;Samples;Min_cycle;Max_cycle;Signal;HPM_P1;HPM_P2
2022/04/29 04:00:46;;;;;;;10.87;10.03;;;9.40;99.90;;;;;;5819068;23;20493;-65
2022/04/29 04:03:13;;;;;;;11.10;9.90;;;9.40;99.90;;;;;;4997120;28;20446;-65
2022/04/29 04:06:49;;;;;;;11.30;10.40;;;9.40;99.90;;;;;;4996724;28;20458;-65
2022/04/29 04:08:27;;;;;;;11.23;10.23;;;9.30;99.90;;;;;;4996106;28;20461;-66
2022/04/29 04:10:54;;;;;;;12.67;11.30;;;9.30;99.90;;;;;;4996875;28;20981;-65
2022/04/29 04:13:21;;;;;;;11.40;10.23;;;9.30;99.90;;;;;;4996378;28;20513;-67
2022/04/29 04:15:49;;;;;;;11.27;10.10;;;9.30;99.90;;;;;;4996050;28;20450;-66
2022/04/29 04:18:16;;;;;;;12.37;11.30;;;9.30;99.90;;;;;;4996545;28;20498;-66
2022/04/29 04:20:42;;;;;;;11.47;10.47;;;9.30;99.90;;;;;;4996383;28;21025;-66
2022/04/29 04:23:10;;;;;;;11.90;10.80;;;9.30;99.90;;;;;;4995880;28;20457;-65
2022/04/29 04:25:37;;;;;;;12.23;11.23;;;9.30;99.90;;;;;;4995421;28;20454;-66
2022/04/29 04:28:04;;;;;;;12.00;11.10;;;9.40;99.90;;;;;;4995026;28;20457;-66
2022/04/29 04:30:30;;;;;;;11.27;10.30;;;9.40;99.90;;;;;;4994682;28;20474;-66
2022/04/29 04:32:58;;;;;;;10.63;9.70;;;9.40;99.90;;;;;;4994672;28;20509;-67
2022/04/29 04:35:25;;;;;;;10.50;9.60;;;9.40;99.90;;;;;;4994944;28;20457;-66
2022/04/29 04:37:52;;;;;;;11.43;10.43;;;9.50;99.90;;;;;;4994838;28;20450;-66
2022/04/29 04:40:19;;;;;;;10.20;9.40;;;9.50;99.90;;;;;;4994348;28;21013;-66
2022/04/29 04:42:45;;;;;;;10.60;9.63;;;9.50;99.90;;;;;;4994801;28;20458;-66
2022/04/29 04:45:13;;;;;;;9.30;8.60;;;9.50;99.90;;;;;;4994757;28;20454;-65
2022/04/29 04:47:40;;;;;;;9.73;8.93;;;9.50;99.90;;;;;;4994240;28;20939;-66
2022/04/29 04:50:08;;;;;;;9.63;8.90;;;9.60;99.90;;;;;;4994592;28;20493;-66
2022/04/29 04:52:35;;;;;;;10.87;9.73;;;9.70;99.90;;;;;;5009241;28;20450;-66
2022/04/29 04:55:05;;;;;;;10.30;9.50;;;9.70;99.90;;;;;;5006561;28;20468;-68
2022/04/29 04:57:32;;;;;;;11.07;10.07;;;9.80;99.90;;;;;;4994576;28;20867;-66
2022/04/29 04:59:58;;;;;;;10.67;9.67;;;9.90;99.90;;;;;;4994204;28;20480;-66
2022/04/29 05:02:25;;;;;;;12.43;11.40;;;10.00;99.90;;;;;;4993891;28;20509;-65
2022/04/29 05:04:52;;;;;;;12.37;11.27;;;10.10;99.90;;;;;;4994396;28;20454;-66
2022/04/29 05:07:20;;;;;;;11.40;10.40;;;10.20;99.90;;;;;;4994346;28;20461;-66
2022/04/29 05:09:46;;;;;;;13.13;11.33;;;10.20;99.90;;;;;;4994305;28;20461;-66
2022/04/29 05:12:14;;;;;;;12.63;11.60;;;10.20;99.90;;;;;;4994621;28;20470;-66
2022/04/29 05:14:40;;;;;;;12.30;11.20;;;10.30;99.90;;;;;;4994133;28;20457;-65
2022/04/29 05:17:07;;;;;;;12.10;11.10;;;10.30;99.90;;;;;;4994109;28;20481;-65
2022/04/29 05:19:34;;;;;;;12.13;11.03;;;10.20;99.90;;;;;;4993751;28;20462;-64
2022/04/29 05:22:00;;;;;;;12.20;11.10;;;10.20;99.90;;;;;;4993939;28;20482;-64
2022/04/29 05:24:28;;;;;;;13.07;11.97;;;10.20;99.90;;;;;;4994484;28;20458;-66
2022/04/29 05:26:55;;;;;;;10.97;10.07;;;10.20;99.90;;;;;;4993996;28;20480;-65
2022/04/29 05:29:22;;;;;;;13.67;12.37;;;10.20;99.90;;;;;;4993931;28;20864;-65
2022/04/29 05:31:49;;;;;;;13.30;12.00;;;10.30;99.90;;;;;;4993863;28;20493;-65
2022/04/29 05:34:16;;;;;;;13.43;12.33;;;10.30;99.90;;;;;;4993992;28;20454;-65
2022/04/29 05:36:44;;;;;;;13.30;12.10;;;10.30;99.90;;;;;;4993849;28;20525;-65
2022/04/29 05:44:40;;;;;;;13.33;12.13;;;10.50;99.90;;;;;;4993837;28;20509;-64
2022/04/29 05:47:08;;;;;;;13.83;12.63;;;10.60;99.90;;;;;;4993742;28;20454;-64
2022/04/29 05:49:34;;;;;;;13.50;12.20;;;10.70;99.90;;;;;;4994044;28;20831;-64
2022/04/29 05:52:02;;;;;;;10.57;9.67;;;10.80;99.90;;;;;;4993731;28;20493;-65
2022/04/29 05:54:29;;;;;;;10.60;9.50;;;10.90;99.90;;;;;;4993985;28;20801;-65
2022/04/29 05:56:57;;;;;;;11.13;10.10;;;11.10;99.90;;;;;;4994108;28;20512;-64
2022/04/29 05:59:24;;;;;;;10.40;9.50;;;11.20;99.90;;;;;;4994131;28;20457;-64
2022/04/29 06:01:51;;;;;;;10.23;9.13;;;11.40;99.90;;;;;;4993990;28;20489;-65
2022/04/29 06:04:17;;;;;;;10.70;8.93;;;11.70;99.90;;;;;;4994463;28;20488;-65
2022/04/29 06:06:44;;;;;;;9.20;8.40;;;12.00;99.90;;;;;;4994081;28;20462;-65
2022/04/29 06:09:11;;;;;;;9.40;8.60;;;12.40;99.90;;;;;;4996381;28;20457;-65
2022/04/29 06:11:37;;;;;;;10.47;8.17;;;12.70;99.90;;;;;;4996919;28;20481;-65
2022/04/29 06:14:05;;;;;;;8.67;7.97;;;13.20;99.90;;;;;;4996549;28;20533;-65
2022/04/29 06:16:33;;;;;;;9.67;8.67;;;13.70;99.90;;;;;;4997015;28;20462;-65
2022/04/29 06:19:00;;;;;;;9.40;8.50;;;14.30;99.90;;;;;;4996986;28;20453;-65
2022/04/29 06:21:27;;;;;;;8.80;8.10;;;14.80;99.90;;;;;;4996846;28;20486;-65
2022/04/29 06:23:53;;;;;;;8.63;7.93;;;15.40;99.90;;;;;;4996733;28;20458;-65
2022/04/29 06:26:20;;;;;;;8.40;7.70;;;15.80;99.90;;;;;;4996738;28;20462;-66
2022/04/29 06:28:47;;;;;;;8.90;8.27;;;16.20;99.90;;;;;;4996395;28;20934;-66
2022/04/29 06:31:15;;;;;;;9.30;8.50;;;16.40;99.90;;;;;;4996388;28;20477;-65
2022/04/29 06:33:42;;;;;;;8.60;8.00;;;16.80;99.60;;;;;;4996716;28;20513;-65
2022/04/29 06:36:09;;;;;;;8.50;7.90;;;17.00;98.40;;;;;;4996190;28;20962;-65
2022/04/29 06:38:36;;;;;;;9.77;8.90;;;17.10;95.70;;;;;;4996524;28;20517;-65
2022/04/29 06:41:02;;;;;;;10.50;9.40;;;17.20;95.40;;;;;;4996031;28;21084;-65
2022/04/29 06:43:30;;;;;;;9.63;8.93;;;17.00;95.10;;;;;;4996432;28;20465;-65
2022/04/29 06:45:58;;;;;;;8.67;7.97;;;17.10;95.60;;;;;;4996375;28;20512;-64
2022/04/29 06:48:26;;;;;;;11.57;9.17;;;17.40;95.90;;;;;;4995778;28;20939;-65
2022/04/29 06:50:53;;;;;;;11.67;8.87;;;17.80;95.70;;;;;;4996187;28;20505;-65
2022/04/29 06:53:20;;;;;;;9.60;8.90;;;18.10;95.50;;;;;;4996289;28;20465;-65
2022/04/29 06:55:47;;;;;;;11.93;9.50;;;18.50;94.80;;;;;;4996471;28;20457;-65
2022/04/29 06:58:13;;;;;;;10.87;10.03;;;18.90;94.40;;;;;;4996146;28;20512;-65
2022/04/29 07:00:42;;;;;;;12.60;10.33;;;18.90;94.10;;;;;;4996148;28;20490;-65
2022/04/29 07:03:09;;;;;;;12.80;11.60;;;19.10;93.10;;;;;;4995896;28;20453;-65
2022/04/29 07:05:39;;;;;;;11.80;10.77;;;19.30;93.20;;;;;;4996045;28;20458;-65
2022/04/29 07:08:06;;;;;;;13.07;11.77;;;19.30;94.30;;;;;;4995838;28;20454;-65
2022/04/29 07:10:33;;;;;;;13.07;11.77;;;19.20;92.80;;;;;;4995670;28;20870;-65
2022/04/29 07:13:03;;;;;;;16.40;12.33;;;19.10;93.10;;;;;;4995961;28;20458;-65
2022/04/29 07:15:29;;;;;;;21.00;11.17;;;18.90;91.70;;;;;;4995894;28;20892;-65
2022/04/29 07:17:56;;;;;;;12.73;11.67;;;18.80;91.30;;;;;;4995950;28;20489;-65
2022/04/29 07:20:23;;;;;;;16.70;11.40;;;18.50;91.40;;;;;;4995566;28;20465;-65
2022/04/29 07:22:51;;;;;;;12.93;10.73;;;18.50;91.90;;;;;;4995813;28;20858;-65
2022/04/29 07:25:19;;;;;;;19.23;10.13;;;18.50;91.10;;;;;;4995842;28;20454;-65
2022/04/29 07:27:46;;;;;;;11.27;10.27;;;18.60;91.60;;;;;;4996290;28;20517;-65
2022/04/29 07:30:13;;;;;;;10.57;9.77;;;18.60;91.10;;;;;;4996340;28;20480;-66
2022/04/29 07:32:40;;;;;;;10.33;9.27;;;18.60;88.30;;;;;;4996271;28;20458;-65
2022/04/29 07:43:44;;;;;;;10.80;9.80;;;18.50;88.40;;;;;;4902144;29;20455;-65
2022/04/29 07:46:11;;;;;;;9.83;9.03;;;18.60;89.20;;;;;;4972132;28;20950;-65
2022/04/29 07:48:39;;;;;;;10.17;9.27;;;18.60;88.30;;;;;;4995314;28;20450;-65
2022/04/29 07:51:06;;;;;;;13.23;10.87;;;18.70;89.40;;;;;;4995148;28;20505;-65
2022/04/29 07:53:35;;;;;;;13.90;9.70;;;18.70;90.80;;;;;;4995269;28;20457;-65
2022/04/29 07:56:02;;;;;;;10.87;9.87;;;18.80;90.80;;;;;;4995256;28;20866;-65
2022/04/29 07:58:29;;;;;;;11.30;10.40;;;18.90;84.10;;;;;;4995195;28;20500;-65
2022/04/29 08:00:57;;;;;;;10.83;9.83;;;18.80;90.60;;;;;;4994720;28;20489;-65
2022/04/29 08:03:24;;;;;;;10.13;9.43;;;18.80;89.40;;;;;;4994806;28;20448;-65
2022/04/29 08:05:52;;;;;;;10.53;9.63;;;18.80;87.90;;;;;;4994964;28;20464;-65
2022/04/29 08:08:19;;;;;;;10.80;9.80;;;18.70;85.60;;;;;;4994928;28;20450;-65
2022/04/29 08:10:48;;;;;;;10.80;9.80;;;18.50;85.60;;;;;;4994907;28;20561;-66
2022/04/29 08:13:15;;;;;;;10.87;9.87;;;18.50;86.70;;;;;;4994830;28;20883;-65
2022/04/29 08:15:45;;;;;;;10.10;9.20;;;18.30;84.00;;;;;;4994771;28;20454;-65
2022/04/29 08:18:12;;;;;;;11.23;10.13;;;18.10;87.70;;;;;;4994592;28;20489;-65
2022/04/29 08:20:39;;;;;;;10.77;9.77;;;18.20;90.20;;;;;;4994536;28;20975;-65
2022/04/29 08:23:06;;;;;;;9.97;8.97;;;18.60;90.10;;;;;;4994658;28;20455;-65
2022/04/29 08:25:32;;;;;;;10.37;9.57;;;19.50;84.90;;;;;;4994338;28;20821;-65
2022/04/29 08:28:01;;;;;;;10.00;9.20;;;20.40;83.90;;;;;;4994744;28;20465;-65
2022/04/29 08:30:29;;;;;;;8.53;7.83;;;21.20;78.90;;;;;;4994042;28;20454;-65
2022/04/29 08:32:56;;;;;;;9.17;8.57;;;21.80;79.50;;;;;;4994559;28;20550;-65
2022/04/29 08:35:22;;;;;;;9.57;8.77;;;22.70;81.30;;;;;;4994448;28;20811;-65
2022/04/29 08:37:50;;;;;;;9.90;9.00;;;23.30;69.10;;;;;;4994347;28;20457;-65
2022/04/29 08:40:17;;;;;;;8.47;7.77;;;23.90;68.70;;;;;;4994416;28;20535;-66
2022/04/29 08:42:44;;;;;;;9.47;8.57;;;24.20;66.90;;;;;;4994397;28;20482;-65
2022/04/29 08:45:15;;;;;;;8.43;7.83;;;24.50;65.90;;;;;;4994243;28;20473;-66
2022/04/29 08:47:45;;;;;;;7.60;7.00;;;24.90;64.40;;;;;;4994330;28;20820;-66
2022/04/29 08:50:14;;;;;;;10.77;7.80;;;25.40;59.20;;;;;;4994163;28;20832;-67
2022/04/29 08:52:41;;;;;;;9.33;8.53;;;26.30;59.60;;;;;;4993857;28;21006;-65
2022/04/29 09:00:42;;;;;;;8.70;8.10;;;27.40;53.10;;;;;;4994512;28;20828;-66
2022/04/29 09:03:12;;;;;;;9.93;7.33;;;27.30;52.30;;;;;;4994213;28;20477;-65
2022/04/29 09:05:39;;;;;;;8.27;7.60;;;27.10;52.30;;;;;;4994057;28;20446;-65
2022/04/29 09:08:06;;;;;;;8.80;8.10;;;27.10;54.00;;;;;;4994065;28;20458;-65
2022/04/29 09:10:35;;;;;;;8.10;7.40;;;27.30;51.60;;;;;;4993980;28;20473;-66
2022/04/29 09:13:12;;;;;;;9.50;8.50;;;27.70;53.90;;;;;;4994122;28;20457;-66
2022/04/29 09:15:45;;;;;;;9.30;8.60;;;27.90;48.40;;;;;;4994458;28;20442;-66
2022/04/29 09:18:12;;;;;;;9.33;8.57;;;27.40;49.00;;;;;;4993541;28;20907;-66
2022/04/29 09:20:40;;;;;;;8.77;8.00;;;27.50;49.70;;;;;;4993627;28;20485;-66
2022/04/29 09:23:08;;;;;;;8.60;7.90;;;27.70;48.60;;;;;;4993815;28;20813;-66
2022/04/29 09:25:36;;;;;;;7.93;7.33;;;27.50;50.30;;;;;;4993789;28;20454;-65
2022/04/29 09:28:05;;;;;;;8.43;7.73;;;28.00;47.60;;;;;;4993735;28;20479;-65
2022/04/29 09:30:37;;;;;;;8.87;8.07;;;28.70;50.20;;;;;;4993841;28;20478;-66
2022/04/29 09:33:07;;;;;;;7.53;6.93;;;28.70;45.20;;;;;;4994039;28;20911;-66
2022/04/29 09:35:38;;;;;;;8.83;8.23;;;28.20;45.80;;;;;;4993674;28;20482;-65
2022/04/29 09:40:50;;;;;;;7.83;7.23;;;27.20;44.90;;;;;;4993714;28;20461;-65
2022/04/29 09:43:17;;;;;;;8.00;7.40;;;26.40;47.20;;;;;;4995648;28;20460;-65
2022/04/29 09:45:43;;;;;;;8.10;7.17;;;26.20;48.50;;;;;;4997541;28;20515;-65
2022/04/29 09:48:11;;;;;;;8.67;8.07;;;26.30;49.50;;;;;;4997381;28;20453;-66
2022/04/29 09:50:47;;;;;;;8.33;7.60;;;26.40;49.00;;;;;;4997285;28;20491;-66
2022/04/29 09:53:21;;;;;;;8.73;8.07;;;26.30;50.00;;;;;;4997012;28;20495;-64
2022/04/29 09:56:06;;;;;;;9.17;8.40;;;25.90;50.20;;;;;;4997263;28;20446;-65
2022/04/29 09:58:33;;;;;;;8.23;7.43;;;25.50;51.20;;;;;;4997336;28;20474;-65
2022/04/29 10:01:00;;;;;;;10.20;9.40;;;25.20;51.60;;;;;;4996774;28;20496;-65
2022/04/29 10:03:28;;;;;;;7.87;7.20;;;24.90;53.60;;;;;;4997335;28;20458;-65
2022/04/29 10:05:57;;;;;;;7.90;7.30;;;24.90;51.50;;;;;;4997131;28;20476;-65
2022/04/29 10:08:26;;;;;;;8.33;7.73;;;24.90;50.10;;;;;;4996871;28;20974;-66
2022/04/29 10:10:55;;;;;;;8.33;7.23;;;24.80;52.30;;;;;;4997085;28;20473;-65
2022/04/29 10:13:23;;;;;;;8.47;7.33;;;24.80;50.50;;;;;;4996960;28;20450;-66
2022/04/29 10:15:51;;;;;;;8.07;7.27;;;24.80;50.90;;;;;;4996873;28;20564;-65
2022/04/29 10:21:17;;;;;;;8.03;7.43;;;25.40;53.20;;;;;;4996925;28;20532;-65
2022/04/29 10:23:48;;;;;;;7.73;7.13;;;25.50;53.80;;;;;;4996972;28;20449;-65
2022/04/29 10:26:17;;;;;;;6.33;5.83;;;25.20;53.80;;;;;;4996686;28;20434;-65
2022/04/29 10:28:44;;;;;;;10.03;5.87;;;25.50;50.60;;;;;;4996816;28;20512;-65
2022/04/29 10:31:18;;;;;;;5.30;4.90;;;25.90;56.30;;;;;;4996704;28;20548;-65
2022/04/29 10:33:44;;;;;;;5.77;5.47;;;26.30;52.00;;;;;;4996412;28;20441;-65
2022/04/29 10:36:15;;;;;;;5.27;4.97;;;27.00;52.20;;;;;;4996571;28;20819;-65
2022/04/29 10:38:46;;;;;;;4.37;4.17;;;26.80;48.00;;;;;;4996627;28;20836;-65
2022/04/29 10:41:15;;;;;;;5.20;4.80;;;27.10;47.20;;;;;;4996415;28;20469;-66
2022/04/29 10:43:47;;;;;;;5.23;4.83;;;27.30;48.60;;;;;;4996451;28;20458;-66
2022/04/29 10:46:21;;;;;;;5.40;4.60;;;27.40;47.40;;;;;;4996483;28;20446;-65
2022/04/29 10:48:49;;;;;;;5.17;4.87;;;27.60;47.60;;;;;;4996404;28;20794;-66
2022/04/29 10:51:22;;;;;;;5.23;4.83;;;27.70;46.80;;;;;;4996577;28;20512;-65
2022/04/29 10:53:51;;;;;;;4.67;4.33;;;27.80;44.70;;;;;;4995758;28;20973;-65
2022/04/29 10:56:36;;;;;;;5.20;4.90;;;28.20;45.00;;;;;;4996558;28;20460;-65
2022/04/29 10:59:22;;;;;;;5.30;4.90;;;28.50;44.80;;;;;;4996394;28;20454;-66
2022/04/29 11:01:51;;;;;;;9.53;4.80;;;28.50;43.90;;;;;;4995874;28;20496;-66
2022/04/29 11:04:42;;;;;;;5.40;5.00;;;28.70;45.70;;;;;;5006215;28;20454;-66
2022/04/29 11:07:38;;;;;;;5.13;4.83;;;29.00;45.80;;;;;;5018907;28;20434;-66
2022/04/29 11:10:06;;;;;;;5.70;5.30;;;29.40;45.20;;;;;;4996372;28;20497;-66
2022/04/29 11:12:35;;;;;;;5.93;5.63;;;29.30;42.00;;;;;;4995922;28;20858;-66
2022/04/29 11:15:14;;;;;;;4.87;4.57;;;29.00;43.10;;;;;;4995866;28;20453;-66
2022/04/29 11:17:42;;;;;;;5.27;4.97;;;29.00;46.40;;;;;;4995932;28;20465;-66
2022/04/29 11:20:16;;;;;;;5.27;4.97;;;28.80;47.00;;;;;;4995442;28;20969;-66
2022/04/29 11:25:52;;;;;;;6.13;5.63;;;28.30;44.90;;;;;;4995885;28;20421;-66
2022/04/29 11:28:20;;;;;;;5.20;4.70;;;27.70;43.90;;;;;;4995713;28;20457;-66
2022/04/29 11:30:48;;;;;;;5.20;4.70;;;27.20;48.00;;;;;;4995375;28;20469;-66
2022/04/29 11:33:15;;;;;;;5.10;4.60;;;26.90;46.50;;;;;;4995051;28;20962;-66
2022/04/29 11:35:43;;;;;;;4.87;4.47;;;26.30;45.60;;;;;;4995512;28;20458;-66
2022/04/29 11:38:11;;;;;;;7.10;5.03;;;25.90;46.60;;;;;;4995143;28;20461;-66
2022/04/29 11:40:39;;;;;;;4.53;4.23;;;25.40;46.10;;;;;;4995311;28;20481;-65
2022/04/29 11:43:10;;;;;;;5.00;4.60;;;24.90;45.50;;;;;;4995201;28;20568;-65
2022/04/29 11:45:38;;;;;;;4.73;4.43;;;24.50;47.40;;;;;;4995306;28;20452;-65
2022/04/29 11:48:06;;;;;;;6.00;5.40;;;24.10;45.90;;;;;;4995272;28;20458;-65
2022/04/29 11:50:34;;;;;;;7.63;4.70;;;23.70;45.90;;;;;;4995105;28;20567;-66
2022/04/29 11:53:08;;;;;;;5.53;5.10;;;23.50;46.30;;;;;;4995892;28;20457;-65
2022/04/29 11:55:37;;;;;;;4.40;4.17;;;23.30;48.20;;;;;;4995164;28;20448;-65
2022/04/29 11:58:04;;;;;;;4.33;3.93;;;23.20;48.90;;;;;;4994985;28;20862;-65
2022/04/29 12:00:33;;;;;;;4.17;3.77;;;23.10;48.10;;;;;;4994805;28;20464;-65
2022/04/29 12:03:01;;;;;;;4.13;3.83;;;23.00;47.30;;;;;;4994898;28;20795;-65
2022/04/29 12:05:29;;;;;;;3.87;3.67;;;23.00;48.60;;;;;;4994082;28;20497;-65
2022/04/29 12:07:59;;;;;;;3.90;3.70;;;23.00;49.30;;;;;;4994777;28;20485;-65
2022/04/29 12:10:28;;;;;;;3.77;3.57;;;23.10;48.20;;;;;;4994712;28;20911;-65
2022/04/29 12:12:58;;;;;;;4.03;3.73;;;23.10;49.50;;;;;;4995087;28;20454;-65
2022/04/29 12:15:28;;;;;;;4.10;3.80;;;23.10;47.70;;;;;;4994757;28;20457;-65
2022/04/29 12:17:58;;;;;;;3.63;3.43;;;23.00;48.60;;;;;;4994601;28;20458;-65
2022/04/29 12:20:25;;;;;;;3.90;3.70;;;23.00;48.70;;;;;;4994557;28;20476;-66
2022/04/29 12:22:52;;;;;;;5.00;4.70;;;23.10;49.50;;;;;;4994564;28;20481;-65
2022/04/29 12:25:27;;;;;;;4.37;3.90;;;23.30;48.20;;;;;;4994698;28;20461;-65
2022/04/29 12:28:11;;;;;;;4.83;4.40;;;23.40;49.40;;;;;;4994546;28;20442;-65
2022/04/29 12:36:09;;;;;;;4.70;4.17;;;23.70;48.50;;;;;;4994653;28;20493;-65
2022/04/29 12:38:36;;;;;;;4.73;4.43;;;23.90;49.50;;;;;;4994296;28;20480;-65
2022/04/29 12:41:21;;;;;;;4.37;3.97;;;24.10;47.80;;;;;;4994354;28;20484;-66
2022/04/29 12:43:49;;;;;;;4.40;4.20;;;24.20;46.90;;;;;;4994213;28;20488;-66
2022/04/29 12:46:16;;;;;;;4.73;4.43;;;24.50;47.20;;;;;;4993990;28;20460;-65
2022/04/29 12:48:48;;;;;;;4.27;3.90;;;24.50;47.60;;;;;;4993890;28;20453;-66
2022/04/29 12:51:29;;;;;;;4.30;3.23;;;24.70;48.70;;;;;;4994040;28;20513;-66
2022/04/29 12:53:56;;;;;;;4.53;3.80;;;24.90;48.80;;;;;;4994115;28;20504;-65
2022/04/29 12:56:24;;;;;;;3.70;3.47;;;24.90;49.60;;;;;;4993941;28;20461;-65
2022/04/29 12:58:52;;;;;;;4.67;4.40;;;24.90;48.10;;;;;;4994063;28;20480;-65
2022/04/29 13:01:19;;;;;;;3.30;3.00;;;24.90;46.90;;;;;;4993800;28;20486;-65
2022/04/29 13:03:50;;;;;;;4.27;3.77;;;24.80;45.60;;;;;;4993760;28;20488;-65
2022/04/29 13:06:20;;;;;;;3.97;3.20;;;24.60;47.10;;;;;;4994173;28;20448;-65
2022/04/29 13:08:56;;;;;;;4.00;3.70;;;24.60;48.40;;;;;;4994150;28;20935;-65
2022/04/29 13:11:24;;;;;;;4.17;3.90;;;24.60;48.00;;;;;;4993978;28;20488;-66
2022/04/29 13:13:53;;;;;;;4.50;4.03;;;24.50;49.10;;;;;;4993825;28;20453;-65
2022/04/29 13:16:21;;;;;;;4.40;4.00;;;24.40;48.20;;;;;;4993972;28;20454;-65
2022/04/29 13:18:48;;;;;;;6.20;3.93;;;24.40;50.60;;;;;;4997602;28;20972;-65
2022/04/29 13:21:16;;;;;;;5.37;4.40;;;24.40;48.10;;;;;;4997968;28;20831;-65
2022/04/29 13:23:45;;;;;;;4.43;4.00;;;24.10;48.90;;;;;;4997758;28;20564;-65
2022/04/29 13:26:13;;;;;;;4.43;4.13;;;23.90;48.50;;;;;;4997740;28;20464;-65
2022/04/29 13:28:41;;;;;;;4.30;4.00;;;23.80;48.60;;;;;;4997391;28;20485;-65
2022/04/29 13:31:09;;;;;;;4.40;4.00;;;23.60;49.70;;;;;;4997598;28;20477;-66
2022/04/29 13:33:36;;;;;;;4.53;4.13;;;23.50;50.20;;;;;;4997689;28;20453;-65
2022/04/29 13:36:04;;;;;;;4.30;4.10;;;23.50;50.40;;;;;;4997269;28;20457;-65
2022/04/29 13:38:32;;;;;;;3.70;3.50;;;23.50;49.50;;;;;;4997266;28;20505;-65
2022/04/29 13:40:59;;;;;;;4.00;3.80;;;23.60;50.30;;;;;;4997500;28;20548;-65
2022/04/29 13:43:26;;;;;;;3.60;3.30;;;23.70;51.70;;;;;;4997076;28;20481;-65
2022/04/29 13:45:53;;;;;;;4.50;4.30;;;23.80;51.70;;;;;;4997445;28;20489;-65
2022/04/29 13:48:22;;;;;;;3.77;3.57;;;23.80;50.10;;;;;;4997337;28;20877;-65
2022/04/29 13:50:49;;;;;;;4.60;4.30;;;23.70;49.50;;;;;;4997609;28;20585;-66
2022/04/29 13:53:16;;;;;;;4.30;4.00;;;23.70;49.00;;;;;;4997232;28;20449;-65
2022/04/29 13:55:47;;;;;;;4.73;4.30;;;23.60;49.30;;;;;;4997207;28;20458;-65
2022/04/29 13:58:15;;;;;;;4.70;3.80;;;23.50;49.50;;;;;;4997398;28;20453;-66
2022/04/29 14:00:44;;;;;;;4.47;4.17;;;23.40;49.40;;;;;;4996824;28;20490;-66
2022/04/29 14:03:11;;;;;;;4.73;4.33;;;23.20;49.50;;;;;;4996941;28;20524;-65
2022/04/29 14:05:39;;;;;;;3.80;3.50;;;23.10;50.70;;;;;;4996980;28;20872;-65
2022/04/29 14:08:07;;;;;;;4.20;3.90;;;23.10;50.90;;;;;;4997362;28;20458;-65
2022/04/29 14:10:34;;;;;;;4.87;4.40;;;22.90;51.10;;;;;;4997209;28;20552;-65
2022/04/29 14:13:01;;;;;;;4.63;4.43;;;22.70;51.80;;;;;;4996990;28;20457;-65
2022/04/29 14:15:28;;;;;;;5.03;4.53;;;22.60;51.30;;;;;;4996857;28;20454;-65
2022/04/29 14:17:55;;;;;;;5.40;4.00;;;22.70;52.20;;;;;;4996801;28;20462;-65
2022/04/29 14:20:22;;;;;;;4.90;4.33;;;22.70;52.60;;;;;;4996638;28;20857;-66
2022/04/29 14:22:51;;;;;;;5.63;5.00;;;22.60;49.50;;;;;;4996427;28;20990;-65
2022/04/29 14:25:18;;;;;;;4.87;4.40;;;22.60;50.40;;;;;;4996697;28;20875;-65
2022/04/29 14:27:46;;;;;;;4.27;3.90;;;22.50;50.70;;;;;;4996802;28;20453;-65
2022/04/29 14:30:14;;;;;;;4.67;4.27;;;22.50;52.30;;;;;;4995709;28;20458;-65
2022/04/29 14:32:41;;;;;;;4.63;3.83;;;22.60;52.60;;;;;;4996374;28;20454;-65
2022/04/29 14:35:10;;;;;;;6.30;4.50;;;22.90;52.00;;;;;;4996630;28;20524;-64
2022/04/29 14:37:37;;;;;;;4.30;4.10;;;23.00;51.40;;;;;;4996521;28;20454;-64
2022/04/29 14:40:07;;;;;;;5.83;4.70;;;23.10;49.90;;;;;;4996579;28;20453;-65
2022/04/29 14:42:34;;;;;;;8.77;6.00;;;23.00;51.30;;;;;;4995743;28;20478;-64
2022/04/29 14:45:03;;;;;;;3.93;3.63;;;23.10;50.40;;;;;;4996107;28;20460;-64
2022/04/29 14:47:30;;;;;;;4.60;4.20;;;23.00;49.70;;;;;;4996313;28;20454;-64
2022/04/29 14:49:57;;;;;;;5.33;4.50;;;23.20;49.80;;;;;;4996058;28;20465;-64
2022/04/29 14:52:24;;;;;;;4.67;4.30;;;23.40;49.70;;;;;;4996074;28;20532;-66
2022/04/29 14:54:50;;;;;;;4.70;4.30;;;23.50;51.20;;;;;;4996228;28;20454;-65
2022/04/29 14:57:18;;;;;;;5.53;4.80;;;23.60;51.50;;;;;;4996015;28;20457;-65
2022/04/29 14:59:45;;;;;;;4.67;4.37;;;23.60;51.00;;;;;;4996051;28;20504;-64
2022/04/29 15:02:12;;;;;;;4.70;4.40;;;23.60;49.80;;;;;;4995850;28;20516;-64
2022/04/29 15:04:40;;;;;;;4.53;4.13;;;23.50;49.60;;;;;;4995651;28;20528;-65
2022/04/29 15:07:07;;;;;;;4.33;3.93;;;23.60;51.40;;;;;;4996017;28;20454;-65
2022/04/29 15:17:49;;;;;;;5.20;4.90;;;23.30;50.90;;;;;;4995741;28;20426;-65
2022/04/29 15:20:16;;;;;;;4.77;4.47;;;23.20;49.80;;;;;;4995690;28;20461;-66
2022/04/29 15:22:44;;;;;;;5.03;4.73;;;23.10;49.70;;;;;;4995291;28;20938;-65
2022/04/29 15:25:11;;;;;;;4.73;4.47;;;22.80;51.80;;;;;;4995735;28;20479;-64
2022/04/29 15:27:39;;;;;;;4.87;4.67;;;22.60;51.30;;;;;;4996216;28;20521;-65
2022/04/29 15:30:06;;;;;;;5.23;4.77;;;22.50;50.30;;;;;;4995558;28;20458;-65
2022/04/29 15:32:33;;;;;;;5.13;4.60;;;22.40;50.70;;;;;;4995585;28;20480;-65
2022/04/29 15:35:00;;;;;;;4.87;4.27;;;22.30;51.30;;;;;;4995493;28;20453;-65
2022/04/29 15:37:26;;;;;;;5.40;5.00;;;22.10;52.40;;;;;;4995423;28;20507;-65
2022/04/29 15:39:53;;;;;;;4.83;4.50;;;22.10;51.70;;;;;;4995402;28;20828;-65
2022/04/29 15:42:20;;;;;;;4.63;4.23;;;21.90;51.30;;;;;;4995265;28;20516;-65
2022/04/29 15:44:48;;;;;;;4.80;4.40;;;21.90;51.80;;;;;;4995267;28;20492;-65
2022/04/29 15:47:15;;;;;;;5.90;5.33;;;21.80;51.90;;;;;;4995254;28;20476;-64
2022/04/29 15:49:42;;;;;;;4.43;4.10;;;21.80;51.90;;;;;;4995113;28;20458;-64
2022/04/29 15:52:09;;;;;;;4.90;4.53;;;21.80;54.30;;;;;;4995049;28;20474;-65
2022/04/29 15:54:35;;;;;;;5.30;4.90;;;21.90;52.90;;;;;;4995159;28;20443;-65
2022/04/29 15:57:02;;;;;;;5.20;4.70;;;21.90;52.60;;;;;;4995263;28;20798;-65
2022/04/29 15:59:29;;;;;;;5.03;4.63;;;22.00;52.90;;;;;;4994904;28;20453;-65
2022/04/29 16:01:57;;;;;;;4.43;4.03;;;22.00;51.30;;;;;;4994736;28;20486;-65
2022/04/29 16:04:27;;;;;;;4.90;4.60;;;22.00;53.20;;;;;;4994729;28;20529;-64
2022/04/29 16:06:54;;;;;;;7.40;5.33;;;22.10;52.90;;;;;;4994868;28;20489;-65
2022/04/29 16:09:21;;;;;;;5.67;5.03;;;21.90;53.10;;;;;;4994498;28;20454;-66
2022/04/29 16:11:47;;;;;;;4.83;4.13;;;21.80;52.50;;;;;;4994708;28;20474;-65
2022/04/29 16:14:14;;;;;;;4.63;4.23;;;21.80;52.10;;;;;;4995675;28;20450;-64
2022/04/29 16:16:41;;;;;;;5.13;4.60;;;21.80;53.60;;;;;;4994699;28;20464;-65
2022/04/29 16:21:54;;;;;;;5.93;5.10;;;21.80;52.60;;;;;;4994667;28;20588;-65
2022/04/29 16:27:05;;;;;;;5.00;4.60;;;21.70;54.00;;;;;;4995038;28;20557;-65
2022/04/29 16:29:32;;;;;;;7.30;6.70;;;21.60;52.50;;;;;;4994770;28;20947;-64
2022/04/29 16:31:59;;;;;;;5.20;4.77;;;21.50;53.40;;;;;;4994476;28;20478;-64
2022/04/29 16:34:29;;;;;;;6.00;4.20;;;21.40;52.80;;;;;;4994967;28;20454;-64
2022/04/29 16:36:56;;;;;;;5.20;4.70;;;21.40;52.00;;;;;;4994904;28;20446;-64
2022/04/29 16:39:23;;;;;;;5.37;4.97;;;21.30;53.70;;;;;;4994768;28;20464;-65
2022/04/29 16:41:50;;;;;;;5.00;4.50;;;21.30;53.30;;;;;;4994515;28;20513;-65
2022/04/29 16:44:17;;;;;;;4.90;4.50;;;21.20;53.80;;;;;;4995846;28;20485;-65
2022/04/29 16:46:44;;;;;;;5.83;5.43;;;21.20;53.30;;;;;;4996070;28;20454;-65
2022/04/29 16:49:10;;;;;;;8.50;7.67;;;21.20;52.80;;;;;;4994845;28;20457;-65
2022/04/29 16:51:39;;;;;;;7.70;7.10;;;21.20;53.60;;;;;;4994200;28;20514;-66
2022/04/29 16:54:06;;;;;;;6.03;5.60;;;21.30;54.10;;;;;;4994748;28;20454;-65
2022/04/29 16:58:42;;;;;;;6.20;5.70;;;21.30;54.10;;;;;;4995096;28;20465;-65
2022/04/29 16:59:22;;;;;;;5.17;4.80;;;21.30;53.60;;;;;;4994365;28;21005;-65
2022/04/29 17:01:49;;;;;;;4.77;4.27;;;21.20;54.00;;;;;;4994377;28;20488;-65
2022/04/29 17:04:15;;;;;;;5.27;4.87;;;21.10;53.60;;;;;;4994223;28;20477;-65
2022/04/29 17:06:46;;;;;;;4.80;4.40;;;21.10;54.30;;;;;;4994520;28;20469;-65
2022/04/29 17:09:13;;;;;;;6.40;5.67;;;21.00;54.00;;;;;;4994860;28;20492;-65
2022/04/29 17:11:40;;;;;;;5.20;4.80;;;20.90;54.20;;;;;;4994673;28;20478;-65
2022/04/29 17:14:06;;;;;;;3.90;3.63;;;20.80;54.00;;;;;;4994192;28;20822;-65
2022/04/29 17:16:34;;;;;;;5.67;5.27;;;20.80;54.20;;;;;;4997312;28;20468;-65
2022/04/29 17:19:00;;;;;;;5.53;4.77;;;20.70;56.00;;;;;;5003786;28;20449;-65
2022/04/29 17:21:27;;;;;;;5.17;4.40;;;20.70;56.60;;;;;;5006871;28;20496;-65
2022/04/29 17:23:55;;;;;;;5.17;4.67;;;20.70;56.80;;;;;;4996389;28;20481;-65
2022/04/29 17:26:22;;;;;;;4.93;4.57;;;20.70;56.90;;;;;;4995902;28;20464;-65
2022/04/29 17:28:50;;;;;;;5.13;4.83;;;20.70;57.30;;;;;;4994507;28;20482;-65
2022/04/29 17:31:17;;;;;;;5.10;4.60;;;20.60;55.90;;;;;;4994217;28;20484;-65
2022/04/29 17:33:44;;;;;;;4.70;4.40;;;20.60;55.90;;;;;;4994305;28;20486;-65
2022/04/29 17:36:11;;;;;;;6.03;4.20;;;20.50;58.00;;;;;;4994110;28;20457;-65